Time;durP1;ratioP1;P1;durP2;ratioP2;P2;SDS_P1;SDS_P2;PMS_P1;PMS_P2;Temp;Humidity;BMP_temperature;BMP_pressure;BME280_temperature;BME280_humidity;BME280_pressure;Samples;Min_cycle;Max_cycle;Signal;HPM_P1;HPM_P2
2022/09/07 00:00:39;;;;;;;;;2.00;2.00;;;;;22.22;57.96;100896.50;4996886;28;45428;-72
2022/09/07 00:03:05;;;;;;;;;2.33;2.33;;;;;22.14;58.32;100900.41;5011685;28;45531;-76
2022/09/07 00:05:31;;;;;;;;;3.00;3.00;;;;;22.16;58.13;100891.41;4995343;28;45515;-74
2022/09/07 00:07:57;;;;;;;;;2.00;2.00;;;;;22.08;58.37;100888.19;4996283;28;45479;-69
2022/09/07 00:10:23;;;;;;;;;2.00;2.00;;;;;22.01;58.34;100884.06;4998576;28;45524;-70
2022/09/07 00:12:50;;;;;;;;;3.00;3.00;;;;;22.07;58.27;100896.25;4997744;28;45618;-70
2022/09/07 00:15:15;;;;;;;;;4.00;2.33;;;;;22.03;58.02;100883.06;4995710;28;45359;-74
2022/09/07 00:17:41;;;;;;;;;2.00;2.00;;;;;22.11;59.12;100898.72;4995728;28;45497;-69
2022/09/07 00:20:08;;;;;;;;;1.67;1.67;;;;;22.05;58.74;100896.34;4995380;28;45714;-73
2022/09/07 00:22:35;;;;;;;;;3.33;1.67;;;;;22.08;59.13;100906.00;4997467;28;45312;-71
2022/09/07 00:25:00;;;;;;;;;3.00;3.00;;;;;21.99;59.49;100916.13;4996859;28;45452;-74
2022/09/07 00:27:26;;;;;;;;;3.00;3.00;;;;;21.92;59.73;100896.00;4995861;28;45938;-72
2022/09/07 00:29:51;;;;;;;;;3.00;3.00;;;;;21.89;60.11;100897.94;4996167;28;45332;-65
2022/09/07 00:32:17;;;;;;;;;2.67;2.67;;;;;21.89;60.84;100901.47;4996438;28;45839;-72
2022/09/07 00:34:42;;;;;;;;;3.00;3.00;;;;;21.89;60.98;100904.13;4997231;28;45523;-68
2022/09/07 00:37:08;;;;;;;;;4.00;3.67;;;;;21.97;60.55;100906.47;5000218;28;46381;-74
2022/09/07 00:39:34;;;;;;;;;4.33;3.00;;;;;22.00;60.52;100904.53;5000204;28;45500;-69
2022/09/07 00:42:00;;;;;;;;;2.33;2.33;;;;;22.01;60.17;100906.25;4997000;28;45505;-74
2022/09/07 00:44:41;;;;;;;;;4.00;2.00;;;;;22.20;59.67;100897.47;4994782;28;45389;-74
2022/09/07 00:47:20;;;;;;;;;3.00;3.00;;;;;22.27;59.47;100898.97;4995931;28;45742;-69
2022/09/07 00:49:51;;;;;;;;;3.00;1.33;;;;;22.20;59.90;100879.69;4998483;28;45340;-69
2022/09/07 00:52:19;;;;;;;;;2.67;2.67;;;;;22.19;59.81;100875.28;4996261;28;45435;-72
2022/09/07 00:54:55;;;;;;;;;3.33;2.33;;;;;22.25;59.87;100899.97;4999195;28;45345;-73
2022/09/07 00:57:21;;;;;;;;;4.00;3.00;;;;;22.18;59.76;100896.66;4998934;28;45558;-67
2022/09/07 00:59:51;;;;;;;;;3.00;3.00;;;;;22.07;60.02;100893.59;4994638;28;45623;-70
2022/09/07 01:02:18;;;;;;;;;3.00;2.33;;;;;22.01;59.86;100898.25;4995605;28;45400;-66
2022/09/07 01:04:47;;;;;;;;;4.33;3.33;;;;;21.93;60.19;100889.75;5012608;28;45584;-66
2022/09/07 01:07:13;;;;;;;;;2.00;2.00;;;;;22.00;60.16;100895.69;4995939;28;45853;-67
2022/09/07 01:09:39;;;;;;;;;3.33;3.33;;;;;21.92;60.30;100897.78;4997102;28;45423;-65
2022/09/07 01:12:05;;;;;;;;;3.00;3.00;;;;;21.94;60.17;100895.94;4997589;28;45718;-65
2022/09/07 01:14:35;;;;;;;;;3.00;3.00;;;;;21.86;60.53;100895.41;4997996;28;45434;-71
2022/09/07 01:17:16;;;;;;;;;4.00;4.00;;;;;21.79;61.27;100897.47;5000669;28;46217;-66
2022/09/07 01:20:06;;;;;;;;;5.00;3.67;;;;;21.86;60.84;100896.25;5002299;28;45363;-64
2022/09/07 01:23:00;;;;;;;;;3.00;2.00;;;;;21.80;61.07;100896.50;5001645;28;45318;-71
2022/09/07 01:25:40;;;;;;;;;3.00;3.00;;;;;21.66;60.82;100881.09;4996286;28;45414;-68
2022/09/07 01:28:16;;;;;;;;;4.67;3.00;;;;;21.85;60.92;100897.19;4994260;28;46800;-66
2022/09/07 01:31:03;;;;;;;;;3.00;3.00;;;;;21.75;60.38;100871.84;5011087;28;45379;-65
2022/09/07 01:33:47;;;;;;;;;2.00;2.00;;;;;21.87;60.54;100886.47;4994859;28;45419;-66
2022/09/07 01:36:41;;;;;;;;;3.00;3.00;;;;;21.86;60.45;100885.59;4996018;28;45384;-66
2022/09/07 01:39:07;;;;;;;;;3.00;3.00;;;;;21.87;60.45;100889.13;4995137;28;45467;-69
2022/09/07 01:41:35;;;;;;;;;2.00;2.00;;;;;21.90;60.27;100884.53;4995298;28;45616;-77
2022/09/07 01:44:09;;;;;;;;;4.00;4.00;;;;;21.84;60.31;100883.94;4996584;28;45435;-66
2022/09/07 01:46:44;;;;;;;;;3.33;3.00;;;;;21.89;60.19;100882.78;4997454;28;45280;-66
2022/09/07 01:49:22;;;;;;;;;2.33;2.33;;;;;21.75;59.53;100866.53;4994606;28;45600;-67
2022/09/07 01:51:56;;;;;;;;;3.00;3.00;;;;;21.84;59.25;100870.59;4992856;28;45680;-65
2022/09/07 01:54:33;;;;;;;;;2.67;2.67;;;;;21.90;58.64;100881.00;4995373;28;45793;-65
2022/09/07 01:57:11;;;;;;;;;2.33;2.00;;;;;21.91;58.36;100882.75;4982614;28;45574;-71
2022/09/07 01:59:39;;;;;;;;;3.00;3.00;;;;;21.89;58.21;100876.59;4989726;28;46145;-66
2022/09/07 02:02:25;;;;;;;;;3.00;1.33;;;;;21.86;57.73;100874.94;4984303;28;45474;-66
2022/09/07 02:04:54;;;;;;;;;1.67;1.67;;;;;21.91;57.35;100880.94;4997234;28;45428;-65
2022/09/07 02:07:32;;;;;;;;;2.00;2.00;;;;;21.80;57.53;100883.19;4995027;28;45896;-64
2022/09/07 02:10:21;;;;;;;;;2.00;2.00;;;;;21.73;57.58;100876.38;4980596;28;46535;-67
2022/09/07 02:13:11;;;;;;;;;2.67;2.67;;;;;21.77;57.42;100867.31;4994573;28;45454;-76
2022/09/07 02:16:09;;;;;;;;;5.00;2.00;;;;;21.83;57.61;100879.53;4988216;28;45405;-68
2022/09/07 02:18:43;;;;;;;;;3.33;1.00;;;;;21.90;57.49;100865.88;4986476;28;45771;-66
2022/09/07 02:21:09;;;;;;;;;2.00;2.00;;;;;22.02;57.51;100878.69;4993257;28;45434;-64
2022/09/07 02:24:00;;;;;;;;;1.00;1.00;;;;;22.02;57.51;100857.34;4994739;28;45497;-64
2022/09/07 02:26:28;;;;;;;;;1.67;1.33;;;;;22.04;57.18;100859.91;4994764;28;45581;-66
2022/09/07 02:28:54;;;;;;;;;3.33;2.00;;;;;22.00;56.78;100877.00;4993109;28;45562;-65
2022/09/07 02:31:20;;;;;;;;;2.00;2.00;;;;;21.98;56.85;100873.53;4992872;28;45576;-65
2022/09/07 02:33:46;;;;;;;;;0.67;0.67;;;;;22.06;57.05;100875.88;4994233;28;45351;-65
2022/09/07 02:36:17;;;;;;;;;1.33;1.33;;;;;21.91;56.89;100856.94;4996241;28;45487;-65
2022/09/07 02:38:43;;;;;;;;;3.00;2.00;;;;;21.93;57.00;100867.53;4998728;28;45727;-69
2022/09/07 02:41:32;;;;;;;;;1.33;1.33;;;;;21.99;56.68;100876.13;4998481;28;45485;-66
2022/09/07 02:43:59;;;;;;;;;4.00;2.33;;;;;21.95;56.73;100865.69;4992673;28;45843;-64
2022/09/07 02:46:44;;;;;;;;;3.33;2.00;;;;;22.00;56.48;100872.53;4994399;28;45360;-64
2022/09/07 02:49:38;;;;;;;;;2.00;2.00;;;;;22.03;56.17;100874.22;4992772;28;45432;-64
2022/09/07 02:52:36;;;;;;;;;1.67;1.67;;;;;21.87;56.65;100859.81;4976037;28;45677;-65
2022/09/07 02:55:39;;;;;;;;;1.00;1.00;;;;;21.72;56.68;100864.84;4993724;28;45537;-65
2022/09/07 02:58:27;;;;;;;;;1.67;1.67;;;;;21.84;56.71;100870.59;4997059;28;45576;-68
2022/09/07 03:01:17;;;;;;;;;1.00;1.00;;;;;21.91;56.58;100861.41;4991768;28;45503;-64
2022/09/07 03:03:49;;;;;;;;;3.33;1.67;;;;;21.81;56.57;100866.28;4993954;28;45871;-65
2022/09/07 03:06:27;;;;;;;;;2.00;1.67;;;;;21.79;56.50;100868.13;4995993;28;45466;-67
2022/09/07 03:08:57;;;;;;;;;1.00;1.00;;;;;21.87;56.27;100876.66;4994462;28;45418;-64
2022/09/07 03:11:23;;;;;;;;;2.00;1.00;;;;;21.91;56.12;100878.28;4994355;28;45425;-71
2022/09/07 03:13:49;;;;;;;;;2.00;1.00;;;;;21.91;56.19;100870.28;4993941;28;45534;-73
2022/09/07 03:16:15;;;;;;;;;1.67;1.00;;;;;21.93;55.84;100873.75;4996719;28;45788;-74
2022/09/07 03:18:41;;;;;;;;;2.00;1.00;;;;;21.96;55.75;100875.41;4994692;28;45599;-65
2022/09/07 03:21:07;;;;;;;;;2.00;2.00;;;;;21.93;55.71;100864.88;4994641;28;45311;-67
2022/09/07 03:23:33;;;;;;;;;2.00;2.00;;;;;21.94;55.47;100877.25;4995015;28;46228;-63
2022/09/07 03:25:58;;;;;;;;;1.00;1.00;;;;;21.87;55.67;100871.31;4998008;28;45483;-68
2022/09/07 03:28:24;;;;;;;;;2.00;2.00;;;;;21.68;55.63;100873.03;4997799;28;45387;-65
2022/09/07 03:30:49;;;;;;;;;2.00;1.67;;;;;21.50;56.31;100872.88;4996610;28;45375;-64
2022/09/07 03:33:15;;;;;;;;;2.00;1.00;;;;;21.51;56.60;100885.28;4995165;28;45566;-67
2022/09/07 03:35:45;;;;;;;;;3.00;2.00;;;;;21.45;56.17;100879.31;4997386;28;45469;-66
2022/09/07 03:38:11;;;;;;;;;2.00;2.00;;;;;21.32;56.70;100882.44;4997016;28;45509;-69
2022/09/07 03:40:37;;;;;;;;;1.00;1.00;;;;;21.27;56.90;100879.13;4982848;28;46231;-68
2022/09/07 03:43:03;;;;;;;;;1.00;1.00;;;;;21.35;56.56;100889.44;5001566;28;45565;-81
2022/09/07 03:45:29;;;;;;;;;1.00;1.00;;;;;21.26;56.69;100890.72;5000676;28;45520;-64
2022/09/07 03:47:55;;;;;;;;;2.00;1.00;;;;;21.22;56.89;100897.09;5001947;28;45588;-77
2022/09/07 03:50:20;;;;;;;;;3.00;2.33;;;;;21.17;56.83;100889.28;4999357;28;46004;-77
2022/09/07 03:52:46;;;;;;;;;5.00;1.67;;;;;21.08;57.05;100892.28;5001531;28;45498;-76
2022/09/07 03:55:12;;;;;;;;;3.67;2.00;;;;;21.03;57.32;100888.94;5002998;28;45751;-73
2022/09/07 03:57:39;;;;;;;;;1.00;1.00;;;;;20.96;57.44;100883.00;5003240;28;45462;-75
2022/09/07 04:00:05;;;;;;;;;3.00;1.00;;;;;21.02;57.14;100879.22;4998748;28;45476;-68
2022/09/07 04:02:31;;;;;;;;;3.00;1.00;;;;;20.96;56.94;100877.66;5013499;28;47017;-70
2022/09/07 04:04:56;;;;;;;;;2.00;2.00;;;;;21.05;57.41;100895.09;4996284;28;45465;-75
2022/09/07 04:07:22;;;;;;;;;2.00;2.00;;;;;21.06;57.18;100899.47;4998017;28;45400;-65
2022/09/07 04:09:50;;;;;;;;;1.00;1.00;;;;;21.14;57.34;100904.50;4999682;28;45776;-72
2022/09/07 04:12:15;;;;;;;;;1.00;1.00;;;;;21.16;56.74;100907.97;4995858;28;47432;-74
2022/09/07 04:14:41;;;;;;;;;1.67;1.67;;;;;21.09;56.87;100917.13;4995914;28;45452;-75
2022/09/07 04:17:07;;;;;;;;;2.00;2.00;;;;;21.02;56.98;100927.13;4998334;28;45450;-75
2022/09/07 04:19:32;;;;;;;;;1.00;1.00;;;;;21.12;56.86;100922.34;4997855;28;45548;-66
2022/09/07 04:21:58;;;;;;;;;1.67;1.67;;;;;21.10;56.74;100914.41;4998511;28;46190;-76
2022/09/07 04:24:23;;;;;;;;;3.33;1.00;;;;;21.17;56.85;100920.38;4997765;28;45397;-67
2022/09/07 04:26:49;;;;;;;;;4.33;1.67;;;;;21.06;56.70;100906.59;4997119;28;45522;-64
2022/09/07 04:29:15;;;;;;;;;2.67;1.67;;;;;21.09;56.96;100915.31;4986966;28;45514;-81
2022/09/07 04:31:40;;;;;;;;;1.00;1.00;;;;;21.20;56.76;100919.38;4994994;28;45813;-76
2022/09/07 04:34:08;;;;;;;;;2.00;2.00;;;;;21.20;56.75;100922.03;4997356;28;45550;-79
2022/09/07 04:36:34;;;;;;;;;1.00;1.00;;;;;21.28;56.57;100933.25;4999156;28;45344;-78
2022/09/07 04:39:03;;;;;;;;;3.00;1.00;;;;;21.25;56.57;100915.59;4998016;28;45536;-83
2022/09/07 04:41:30;;;;;;;;;3.33;2.00;;;;;21.31;56.15;100918.03;4997117;28;45455;-66
2022/09/07 04:43:59;;;;;;;;;2.00;2.00;;;;;21.37;56.28;100932.91;4996478;28;45335;-73
2022/09/07 04:46:27;;;;;;;;;2.00;2.00;;;;;21.24;56.32;100902.34;4996434;28;45649;-68
2022/09/07 04:48:55;;;;;;;;;2.67;1.67;;;;;21.22;56.29;100894.41;4998382;28;45582;-72
2022/09/07 04:51:23;;;;;;;;;2.33;1.67;;;;;21.38;55.92;100916.84;4996322;28;46042;-73
2022/09/07 04:53:51;;;;;;;;;2.33;1.00;;;;;21.31;55.94;100906.50;4995797;28;45295;-71
2022/09/07 04:56:18;;;;;;;;;2.00;2.00;;;;;21.35;56.43;100919.63;4986955;28;45514;-76
2022/09/07 04:58:45;;;;;;;;;2.00;2.00;;;;;21.24;56.14;100899.69;4988453;28;45708;-65
2022/09/07 05:01:16;;;;;;;;;1.00;1.00;;;;;21.36;56.07;100918.72;4995791;28;46104;-64
2022/09/07 05:03:42;;;;;;;;;1.33;1.33;;;;;21.36;56.09;100918.72;4995874;28;45541;-65
2022/09/07 05:06:09;;;;;;;;;3.00;2.00;;;;;21.38;55.95;100924.84;4994480;28;45493;-69
2022/09/07 05:08:40;;;;;;;;;2.00;2.00;;;;;21.42;55.97;100933.59;4996493;28;45492;-71
2022/09/07 05:11:07;;;;;;;;;2.00;2.00;;;;;21.39;55.81;100925.72;4996797;28;46712;-70
2022/09/07 05:13:33;;;;;;;;;1.33;1.33;;;;;21.38;56.06;100914.19;4995995;28;45495;-65
2022/09/07 05:16:00;;;;;;;;;2.00;2.00;;;;;21.44;55.85;100922.91;4999594;28;45391;-64
2022/09/07 05:18:26;;;;;;;;;2.33;1.00;;;;;21.49;56.18;100931.56;5000152;28;45399;-67
2022/09/07 05:20:52;;;;;;;;;3.00;1.00;;;;;21.36;56.18;100931.16;4997413;28;46133;-64
2022/09/07 05:23:17;;;;;;;;;1.67;1.67;;;;;21.36;56.27;100931.16;4995518;28;45752;-64
2022/09/07 05:25:44;;;;;;;;;2.33;2.00;;;;;21.44;56.10;100949.53;4995523;28;45407;-65
2022/09/07 05:28:11;;;;;;;;;4.00;2.00;;;;;21.26;56.06;100913.78;4994879;28;45532;-65
2022/09/07 05:30:37;;;;;;;;;1.00;1.00;;;;;21.50;55.31;100936.84;4998313;28;45735;-65
2022/09/07 05:33:04;;;;;;;;;3.67;2.33;;;;;21.34;56.62;100954.34;4994176;28;45498;-65
2022/09/07 05:35:29;;;;;;;;;1.33;1.33;;;;;20.92;56.44;100915.13;4995903;28;45368;-65
2022/09/07 05:37:55;;;;;;;;;3.00;1.33;;;;;21.09;57.11;100955.25;4996933;28;45538;-65
2022/09/07 05:40:21;;;;;;;;;1.67;1.67;;;;;21.21;57.02;100953.94;4995704;28;45469;-65
2022/09/07 05:42:47;;;;;;;;;3.33;2.00;;;;;21.24;56.96;100939.66;5010487;28;45775;-66
2022/09/07 05:45:13;;;;;;;;;3.67;2.00;;;;;20.94;57.00;100919.44;4988687;28;45584;-64
2022/09/07 05:47:39;;;;;;;;;2.00;2.00;;;;;21.06;57.22;100935.91;4985310;28;45511;-65
2022/09/07 05:50:06;;;;;;;;;3.33;2.00;;;;;21.12;57.39;100939.19;4994073;28;46536;-71
2022/09/07 05:52:32;;;;;;;;;2.33;1.33;;;;;21.15;57.12;100940.88;4991623;28;45541;-67
2022/09/07 05:54:57;;;;;;;;;2.00;2.00;;;;;21.22;57.06;100923.72;4995478;28;45901;-65
2022/09/07 05:57:23;;;;;;;;;3.33;2.00;;;;;21.35;56.68;100934.75;4994988;28;45449;-72
2022/09/07 05:59:49;;;;;;;;;2.00;1.67;;;;;21.46;56.42;100939.69;4993962;28;45403;-72
2022/09/07 06:02:16;;;;;;;;;2.00;1.33;;;;;21.53;56.04;100946.50;4995198;28;45478;-77
2022/09/07 06:04:42;;;;;;;;;4.33;1.33;;;;;21.58;56.08;100948.06;4993538;28;45582;-65
2022/09/07 06:07:12;;;;;;;;;2.00;2.00;;;;;21.37;55.92;100909.78;4994370;28;45448;-65
2022/09/07 06:09:38;;;;;;;;;3.00;3.00;;;;;21.68;56.18;100956.53;4994491;28;45845;-64
2022/09/07 06:12:04;;;;;;;;;3.33;2.00;;;;;21.72;55.88;100959.97;4994431;28;45327;-66
2022/09/07 06:14:32;;;;;;;;;2.00;2.00;;;;;21.56;56.28;100941.91;4993409;28;45516;-71
2022/09/07 06:16:57;;;;;;;;;4.67;3.00;;;;;21.43;56.72;100934.47;4987757;28;45494;-65
2022/09/07 06:19:26;;;;;;;;;5.00;2.33;;;;;21.49;56.79;100944.88;4975442;28;45557;-64
2022/09/07 06:21:52;;;;;;;;;4.67;3.00;;;;;21.39;57.16;100947.03;4976010;28;45539;-67
2022/09/07 06:24:17;;;;;;;;;5.33;3.67;;;;;21.47;57.12;100942.28;4975393;28;45392;-68
2022/09/07 06:26:42;;;;;;;;;3.33;2.33;;;;;21.53;56.85;100950.03;4980145;28;45373;-67
2022/09/07 06:29:09;;;;;;;;;4.33;0.00;;;;;21.55;57.44;100956.19;4983044;28;46114;-68
2022/09/07 06:31:37;;;;;;;;;2.67;2.67;;;;;21.55;56.74;100942.84;4980396;28;45665;-68
2022/09/07 06:34:02;;;;;;;;;1.67;1.67;;;;;21.61;56.63;100949.72;4975801;28;45532;-71
2022/09/07 06:36:30;;;;;;;;;3.00;1.00;;;;;21.67;56.55;100960.16;4987405;28;45400;-67
2022/09/07 06:39:00;;;;;;;;;2.33;2.33;;;;;21.83;57.00;100962.16;4990810;28;48128;-67
2022/09/07 06:41:27;;;;;;;;;6.00;2.67;;;;;21.87;56.29;100956.66;4989991;28;45490;-68
2022/09/07 06:43:54;;;;;;;;;2.33;2.33;;;;;21.87;56.04;100956.66;4987321;28;45387;-66
2022/09/07 06:46:21;;;;;;;;;2.67;2.67;;;;;21.96;55.91;100963.41;4992171;28;45300;-66
2022/09/07 06:48:56;;;;;;;;;2.00;2.00;;;;;21.91;56.08;100942.25;4993360;28;46273;-70
2022/09/07 06:51:27;;;;;;;;;4.33;1.67;;;;;22.10;56.32;100960.16;4986953;28;45481;-66
2022/09/07 06:53:56;;;;;;;;;4.00;2.00;;;;;22.29;55.57;100969.16;4989205;28;45850;-68
2022/09/07 06:56:22;;;;;;;;;3.00;2.00;;;;;22.47;55.84;100956.81;4986791;28;45648;-68
2022/09/07 06:58:53;;;;;;;;;4.00;3.00;;;;;22.42;54.81;100954.34;4993888;28;45485;-69
2022/09/07 07:01:20;;;;;;;;;3.00;3.00;;;;;22.57;54.84;100960.81;4994175;28;45458;-67
2022/09/07 07:03:46;;;;;;;;;1.00;1.00;;;;;22.70;54.44;100954.91;4997394;28;45604;-66
2022/09/07 07:06:13;;;;;;;;;1.67;1.67;;;;;22.91;53.97;100953.06;4993987;28;45466;-68
2022/09/07 07:08:40;;;;;;;;;2.00;2.00;;;;;23.06;54.18;100955.03;4993971;28;45545;-67
2022/09/07 07:11:13;;;;;;;;;2.00;2.00;;;;;23.11;53.25;100952.16;4983683;28;45309;-67
2022/09/07 07:13:41;;;;;;;;;2.00;1.00;;;;;22.82;53.79;100936.50;4993738;28;45547;-70
2022/09/07 07:16:15;;;;;;;;;3.67;2.00;;;;;22.49;54.68;100943.38;4996219;28;45647;-67
2022/09/07 07:18:42;;;;;;;;;4.00;2.00;;;;;22.38;55.10;100942.06;4988832;28;46266;-67
2022/09/07 07:21:12;;;;;;;;;3.33;3.00;;;;;22.15;55.45;100940.34;4991841;28;45450;-67
2022/09/07 07:23:39;;;;;;;;;5.00;5.00;;;;;21.98;55.95;100940.22;4989770;28;45455;-69
2022/09/07 07:26:14;;;;;;;;;5.00;5.00;;;;;22.00;56.14;100941.88;4969546;28;45807;-67
2022/09/07 07:28:51;;;;;;;;;5.00;5.00;;;;;22.08;56.28;100954.03;4986201;28;45753;-66
2022/09/07 07:31:20;;;;;;;;;7.00;6.67;;;;;21.81;56.40;100922.25;4994984;28;45451;-68
2022/09/07 07:33:47;;;;;;;;;4.33;2.67;;;;;22.02;56.14;100939.16;4992685;28;45341;-67
2022/09/07 07:36:17;;;;;;;;;3.67;3.00;;;;;22.07;56.13;100942.50;4992487;28;45531;-66
2022/09/07 07:38:45;;;;;;;;;4.00;2.33;;;;;22.12;56.04;100942.31;4989662;28;45795;-67
2022/09/07 07:41:12;;;;;;;;;4.00;3.00;;;;;22.30;55.58;100936.19;4984368;28;45529;-68
2022/09/07 07:43:38;;;;;;;;;4.67;3.00;;;;;22.27;55.53;100936.31;4987342;28;45522;-68
2022/09/07 07:46:05;;;;;;;;;4.00;2.67;;;;;22.12;56.18;100944.97;4999547;28;45562;-69
2022/09/07 07:48:31;;;;;;;;;3.00;3.00;;;;;22.05;56.29;100941.69;4986986;28;45631;-68
2022/09/07 07:51:06;;;;;;;;;4.67;3.67;;;;;22.16;55.94;100946.53;4990332;28;45638;-69
2022/09/07 07:53:34;;;;;;;;;3.00;3.00;;;;;22.29;55.71;100942.47;4986317;28;46720;-69
2022/09/07 07:56:02;;;;;;;;;4.00;4.00;;;;;22.18;55.81;100944.69;4989339;28;45281;-71
2022/09/07 07:58:30;;;;;;;;;4.00;3.33;;;;;21.73;56.57;100903.91;4992552;28;47146;-68
2022/09/07 08:01:06;;;;;;;;;3.67;3.00;;;;;22.03;56.32;100928.41;4986770;28;45523;-69
2022/09/07 08:03:37;;;;;;;;;4.00;2.33;;;;;22.14;56.12;100932.41;4985855;28;45519;-71
2022/09/07 08:06:06;;;;;;;;;3.33;2.67;;;;;21.89;56.97;100936.13;4989495;28;45719;-70
2022/09/07 08:08:35;;;;;;;;;3.00;3.00;;;;;21.89;57.15;100932.59;5005198;28;47185;-70
2022/09/07 08:11:07;;;;;;;;;4.00;2.00;;;;;21.89;56.92;100917.47;4987879;28;45313;-71
2022/09/07 08:13:33;;;;;;;;;5.67;3.00;;;;;21.88;57.23;100923.75;4991383;28;45533;-69
2022/09/07 08:15:59;;;;;;;;;5.33;3.00;;;;;21.96;57.05;100929.59;4992956;28;45802;-71
2022/09/07 08:18:25;;;;;;;;;3.67;2.33;;;;;22.03;56.89;100930.22;4995504;28;45581;-71
2022/09/07 08:20:50;;;;;;;;;4.33;3.00;;;;;22.05;56.86;100923.03;4993533;28;45917;-73
2022/09/07 08:23:16;;;;;;;;;7.00;4.00;;;;;22.04;56.87;100929.28;4976177;28;45898;-73
2022/09/07 08:25:49;;;;;;;;;4.67;2.67;;;;;21.97;56.87;100928.69;4998186;28;46494;-70
2022/09/07 08:28:15;;;;;;;;;3.00;3.00;;;;;21.90;57.62;100916.53;4995896;28;46255;-71
2022/09/07 08:30:40;;;;;;;;;5.33;3.00;;;;;21.85;57.61;100907.00;4994362;28;45702;-71
2022/09/07 08:33:06;;;;;;;;;4.00;2.00;;;;;22.06;57.67;100927.41;4994701;28;45431;-70
2022/09/07 08:35:32;;;;;;;;;3.00;3.00;;;;;22.06;57.67;100921.22;4990592;28;45452;-70
2022/09/07 08:37:57;;;;;;;;;4.33;3.00;;;;;22.21;57.28;100934.81;4985610;28;45510;-70
2022/09/07 08:40:23;;;;;;;;;3.33;3.00;;;;;22.06;57.41;100900.72;4988868;28;45472;-69
2022/09/07 08:43:07;;;;;;;;;4.33;2.33;;;;;22.39;57.10;100934.91;4986764;28;45632;-69
2022/09/07 08:45:40;;;;;;;;;4.33;3.67;;;;;22.44;57.01;100935.56;4989759;28;45507;-68
2022/09/07 08:48:13;;;;;;;;;4.00;3.00;;;;;22.53;56.67;100945.00;4991522;28;45910;-68
2022/09/07 08:51:02;;;;;;;;;2.00;0.67;;;;;22.51;56.71;100934.38;4992390;28;45516;-68
2022/09/07 08:53:28;;;;;;;;;4.33;2.33;;;;;22.37;56.88;100937.63;4965951;28;46459;-69
2022/09/07 08:56:05;;;;;;;;;3.33;3.00;;;;;22.32;57.43;100945.00;4992163;28;45589;-67
2022/09/07 08:58:47;;;;;;;;;4.33;2.67;;;;;22.33;56.88;100909.38;4988993;28;45455;-69
2022/09/07 09:01:15;;;;;;;;;4.00;4.00;;;;;22.49;56.73;100946.06;4992718;28;45472;-67
2022/09/07 09:03:41;;;;;;;;;6.67;3.00;;;;;22.53;56.81;100934.31;4995749;28;45660;-67
2022/09/07 09:06:10;;;;;;;;;4.67;4.00;;;;;22.61;56.53;100924.13;4994484;28;45489;-67
2022/09/07 09:09:00;;;;;;;;;5.00;3.33;;;;;22.68;56.69;100924.75;4993329;28;45447;-66
2022/09/07 09:11:34;;;;;;;;;4.00;3.33;;;;;23.13;55.39;100913.75;4993517;28;45487;-67
2022/09/07 09:14:15;;;;;;;;;4.67;4.00;;;;;23.25;55.30;100913.19;4992142;28;45632;-67
2022/09/07 09:16:43;;;;;;;;;4.33;3.00;;;;;23.06;55.50;100904.28;4987227;28;45419;-72
2022/09/07 09:19:35;;;;;;;;;3.00;3.00;;;;;22.99;55.88;100910.88;4994756;28;46187;-66
2022/09/07 09:22:14;;;;;;;;;4.00;3.00;;;;;22.98;55.89;100909.13;4996866;28;45655;-67
2022/09/07 09:24:48;;;;;;;;;4.00;2.33;;;;;23.06;55.18;100896.28;4984124;28;45988;-68
2022/09/07 09:27:15;;;;;;;;;1.00;1.00;;;;;23.34;54.97;100908.31;4988999;28;45801;-69
2022/09/07 09:29:40;;;;;;;;;3.00;2.00;;;;;23.39;55.06;100896.47;4984473;28;46526;-67
2022/09/07 09:32:34;;;;;;;;;7.67;3.67;;;;;23.54;54.16;100908.22;4990021;28;45942;-69
2022/09/07 09:35:10;;;;;;;;;5.00;3.00;;;;;23.48;54.10;100909.38;4986675;28;45364;-68
2022/09/07 09:37:38;;;;;;;;;3.67;2.67;;;;;23.37;53.71;100890.34;4991740;28;45555;-69
2022/09/07 09:40:06;;;;;;;;;6.67;2.33;;;;;23.51;53.88;100900.34;4986700;28;46198;-69
2022/09/07 09:42:34;;;;;;;;;5.67;2.67;;;;;23.63;53.36;100902.44;4990286;28;45660;-67
2022/09/07 09:45:25;;;;;;;;;3.00;3.00;;;;;23.83;53.07;100903.25;4989447;28;45462;-67
2022/09/07 09:47:53;;;;;;;;;6.00;3.00;;;;;23.91;52.18;100893.88;4989900;28;45544;-66
2022/09/07 09:50:48;;;;;;;;;5.00;3.00;;;;;23.87;51.97;100891.44;4990369;28;46109;-70
2022/09/07 09:53:31;;;;;;;;;3.00;3.00;;;;;23.62;52.48;100898.00;4984035;28;45537;-69
2022/09/07 09:56:00;;;;;;;;;17.00;13.00;;;;;23.55;52.74;100890.38;4982043;28;45435;-69
2022/09/07 09:58:30;;;;;;;;;7.33;5.67;;;;;23.47;53.21;100893.44;4992637;28;45563;-69
2022/09/07 10:01:23;;;;;;;;;3.67;3.33;;;;;23.56;53.77;100884.94;4993598;28;46220;-70
2022/09/07 10:03:49;;;;;;;;;3.00;3.00;;;;;23.70;52.99;100887.81;4994317;28;45437;-68
2022/09/07 10:06:17;;;;;;;;;2.00;2.00;;;;;23.69;53.13;100875.34;4993318;28;45526;-69
2022/09/07 10:09:00;;;;;;;;;2.00;2.00;;;;;23.90;52.81;100884.13;4995802;28;45433;-71
2022/09/07 10:11:59;;;;;;;;;5.33;3.00;;;;;23.52;51.99;100845.94;4998464;28;46275;-72
2022/09/07 10:14:46;;;;;;;;;5.33;2.33;;;;;23.53;52.74;100877.06;4993880;28;45354;-69
2022/09/07 10:17:34;;;;;;;;;4.00;2.67;;;;;23.77;52.76;100883.03;4994483;28;45300;-69
2022/09/07 10:20:15;;;;;;;;;4.67;2.33;;;;;23.89;52.71;100887.78;4994776;28;45778;-70
2022/09/07 10:22:52;;;;;;;;;3.33;3.00;;;;;23.88;52.13;100867.28;4994190;28;45671;-71
2022/09/07 10:25:29;;;;;;;;;5.67;3.00;;;;;24.07;52.92;100877.06;4994165;28;45539;-71
2022/09/07 10:28:01;;;;;;;;;3.33;3.00;;;;;24.21;51.53;100868.31;4994215;28;45377;-71
2022/09/07 10:30:31;;;;;;;;;4.00;3.00;;;;;24.25;51.85;100870.75;4997992;28;45237;-69
2022/09/07 10:33:23;;;;;;;;;4.00;2.00;;;;;24.35;52.26;100873.78;4993668;28;45948;-71
2022/09/07 10:36:15;;;;;;;;;5.33;4.00;;;;;24.33;51.27;100870.31;4992182;28;45459;-71
2022/09/07 10:38:47;;;;;;;;;3.67;2.00;;;;;24.32;51.86;100868.56;4992244;28;45599;-70
2022/09/07 10:41:16;;;;;;;;;2.33;1.67;;;;;24.35;51.35;100863.09;4996186;28;45489;-69
2022/09/07 10:43:49;;;;;;;;;1.75;1.50;;;;;24.37;50.97;100854.94;4991523;28;46188;-70
2022/09/07 10:46:54;;;;;;;;;2.67;2.67;;;;;24.37;51.58;100854.94;4992752;28;45902;-69
2022/09/07 10:49:26;;;;;;;;;5.00;4.00;;;;;24.45;51.13;100863.44;4988955;28;45846;-69
2022/09/07 10:52:24;;;;;;;;;3.67;2.67;;;;;24.37;51.32;100866.53;4995660;28;45248;-69
2022/09/07 10:54:59;;;;;;;;;3.00;3.00;;;;;24.24;51.71;100847.59;4996091;28;46702;-71
2022/09/07 10:57:59;;;;;;;;;4.67;3.33;;;;;24.23;51.14;100871.78;5012603;28;45663;-71
2022/09/07 11:00:32;;;;;;;;;4.00;3.00;;;;;24.10;51.85;100867.03;4991819;28;46013;-72
2022/09/07 11:03:25;;;;;;;;;21.00;21.00;;;;;24.03;52.71;100859.41;4991624;28;46232;-71
2022/09/07 11:06:00;;;;;;;;;15.00;14.00;;;;;24.23;51.73;100856.56;4993615;28;46104;-71
2022/09/07 11:08:57;;;;;;;;;6.00;4.67;;;;;24.26;51.37;100848.38;4994966;28;45635;-69
2022/09/07 11:11:43;;;;;;;;;7.33;5.33;;;;;24.23;51.33;100853.03;4987568;28;45756;-70
2022/09/07 11:14:16;;;;;;;;;41.00;35.33;;;;;24.45;51.03;100848.25;4984950;28;45378;-69
2022/09/07 11:16:57;;;;;;;;;10.67;9.33;;;;;24.36;49.71;100837.16;4983251;28;46800;-70
2022/09/07 11:19:40;;;;;;;;;8.00;8.00;;;;;24.34;50.39;100845.28;5008945;28;45487;-68
2022/09/07 11:22:08;;;;;;;;;7.00;5.00;;;;;24.36;50.03;100848.75;4989862;28;45364;-69
2022/09/07 11:24:45;;;;;;;;;4.00;4.00;;;;;24.19;49.95;100838.94;5000121;28;45400;-69
2022/09/07 11:27:29;;;;;;;;;5.00;5.00;;;;;24.15;49.77;100826.66;4991458;28;45482;-67
2022/09/07 11:30:23;;;;;;;;;4.67;4.00;;;;;24.09;50.07;100825.19;4996109;28;45375;-74
2022/09/07 11:33:19;;;;;;;;;5.00;5.00;;;;;24.18;47.63;100837.22;4988007;28;46508;-74
2022/09/07 11:36:15;;;;;;;;;3.00;3.00;;;;;24.00;47.53;100844.41;4989176;28;45253;-71
2022/09/07 11:39:01;;;;;;;;;5.00;4.67;;;;;24.05;48.56;100837.00;4991878;28;47776;-71
2022/09/07 11:41:55;;;;;;;;;6.33;3.00;;;;;24.09;47.89;100832.34;4989209;28;45431;-72
2022/09/07 11:44:51;;;;;;;;;6.33;3.00;;;;;24.15;48.41;100832.00;4986917;28;45559;-67
2022/09/07 11:47:38;;;;;;;;;5.00;3.00;;;;;24.19;48.95;100824.69;4982449;28;45386;-72